Bangkok (Suvarnabhumi), Thailand

3:39 PM ICT on August 28, 2016 (GMT +0700)
Bangkok (Suvarnabhumi) | | Change Station

Elev 7 ft 13.36 °N, 100.98 °E | Updated 9 minutes ago

Scattered Clouds
Scattered Clouds
91 °F
Feels Like 102 °F
N
5
Wind Variable Wind from NNW

Today
High -- | Low -- °F
--% Chance of Precip.
Yesterday
High -- | Low -- °F
Precip. -- in
Pressure 29.71 in
Visibility 5.0 miles
Clouds Few 2500 ft
Scattered Clouds 3500 ft
Heat Index 102 °F
Dew Point 75 °F
Humidity 59%
Rainfall 0.00 in
Snow Depth Not available.
6:04 AM 6:29 PM
Waning Crescent, 17% visible
METAR VTBS 280830Z 33004KT 260V050 8000 FEW025 SCT035 33/24 Q1006 NOSIG
Pressure 29.71 in
Visibility 5.0 miles
Clouds Few 2500 ft
Scattered Clouds 3500 ft
Heat Index 102 °F
Dew Point 75 °F
Humidity 59%
Rainfall 0.00 in
Snow Depth Not available.
6:04 AM 6:29 PM
Waning Crescent, 17% visible
METAR VTBS 280830Z 33004KT 260V050 8000 FEW025 SCT035 33/24 Q1006 NOSIG

10-Day Weather Forecast

No radar image for this location.
×

Almanac

Astronomy

Aug. 28, 2016 Rise Set
Actual Time
Civil Twilight
Nautical Twilight
Astronomical Twilight
Moon
Length of Visible Light
Length of Day
Tomorrow will be .
, % of the Moon is Illuminated

Today's Extremes

Country Highs Country Lows

Community

WunderPhotos

Upload Photos

1,935,540 photos uploaded!

WunderBlog® & News

Nearby

Air Quality

  Air Quality AQ Index Pollutant
Not available.

Snow Depth

Station Depth Elevation

Earthquake Activity

City Distance Mag. Time & Date
Minimum magnitude displayed is 2.5.

Coastal Water Temperatures

Place Temperature

Stations

Nearby Weather Stations

Station Location Temp. Windchill Dew Point Humidity Wind Precip. Elev Updated Type